Time;durP1;ratioP1;P1;durP2;ratioP2;P2;SDS_P1;SDS_P2;PMS_P1;PMS_P2;Temp;Humidity;BMP_temperature;BMP_pressure;BME280_temperature;BME280_humidity;BME280_pressure;Samples;Min_cycle;Max_cycle;Signal;HPM_P1;HPM_P2
2021/04/20 00:00:22;;;;;;;15.57;11.37;;;4.90;99.90;;;;;;5005771;28;20463;-43
2021/04/20 00:02:50;;;;;;;12.83;11.53;;;4.80;1.00;;;;;;5007297;28;20499;-42
2021/04/20 00:05:18;;;;;;;16.27;11.53;;;4.80;1.00;;;;;;4997097;28;20518;-43
2021/04/20 00:07:45;;;;;;;12.47;11.00;;;4.70;99.90;;;;;;5001770;28;20772;-47
2021/04/20 00:10:15;;;;;;;14.50;12.00;;;4.70;1.00;;;;;;5009575;28;20467;-42
2021/04/20 00:12:47;;;;;;;13.13;10.63;;;4.70;1.00;;;;;;5012374;28;20455;-43
2021/04/20 00:15:18;;;;;;;13.10;11.70;;;4.60;1.00;;;;;;5002425;28;20888;-42
2021/04/20 00:17:45;;;;;;;13.30;11.30;;;4.60;1.00;;;;;;4997334;28;20476;-45
2021/04/20 00:20:15;;;;;;;13.37;11.53;;;4.50;44.00;;;;;;5007777;28;20922;-43
2021/04/20 00:22:41;;;;;;;14.00;10.40;;;4.50;99.90;;;;;;5017137;28;20495;-42
2021/04/20 00:25:09;;;;;;;14.33;12.17;;;4.50;99.90;;;;;;4999865;28;20789;-42
2021/04/20 00:27:36;;;;;;;14.53;11.73;;;4.40;99.90;;;;;;5011415;28;20526;-44
2021/04/20 00:30:05;;;;;;;16.13;13.33;;;4.40;1.00;;;;;;5015900;28;20952;-43
2021/04/20 00:32:32;;;;;;;12.73;11.13;;;4.40;1.00;;;;;;5000749;28;20457;-43
2021/04/20 00:34:58;;;;;;;13.70;12.20;;;4.40;99.90;;;;;;5010451;28;20473;-42
2021/04/20 00:37:25;;;;;;;13.60;11.30;;;4.40;90.90;;;;;;5015839;28;20784;-42
2021/04/20 00:39:51;;;;;;;11.57;10.10;;;4.30;11.40;;;;;;4998959;28;20469;-43
2021/04/20 00:42:18;;;;;;;11.90;10.70;;;4.30;1.00;;;;;;4998918;28;20925;-44
2021/04/20 00:44:47;;;;;;;14.33;11.97;;;4.20;1.00;;;;;;5003144;28;20467;-44
2021/04/20 00:47:14;;;;;;;18.37;12.13;;;4.20;99.90;;;;;;5010568;28;20912;-44
2021/04/20 00:49:41;;;;;;;12.33;11.03;;;4.10;1.00;;;;;;5005737;28;20464;-43
2021/04/20 00:52:08;;;;;;;18.00;12.40;;;4.10;26.40;;;;;;5017047;28;20877;-45
2021/04/20 00:54:35;;;;;;;15.47;11.80;;;4.10;99.90;;;;;;5017378;28;20474;-43
2021/04/20 00:57:01;;;;;;;12.80;11.23;;;4.10;99.90;;;;;;5002948;28;20475;-43
2021/04/20 00:59:28;;;;;;;12.50;11.20;;;4.00;93.60;;;;;;5011958;28;20472;-43
2021/04/20 01:01:58;;;;;;;13.07;11.33;;;4.00;1.00;;;;;;5017094;28;20778;-42
2021/04/20 01:04:25;;;;;;;14.23;11.40;;;4.00;40.60;;;;;;5017438;28;20785;-43
2021/04/20 01:06:52;;;;;;;13.77;12.20;;;4.00;99.90;;;;;;4994707;28;20465;-46
2021/04/20 01:09:19;;;;;;;12.03;10.87;;;4.00;99.90;;;;;;4998085;28;20465;-42
2021/04/20 01:11:47;;;;;;;13.53;11.43;;;4.00;99.90;;;;;;5000801;28;20464;-42
2021/04/20 01:14:14;;;;;;;21.57;17.07;;;4.00;99.90;;;;;;4999759;28;20492;-47
2021/04/20 01:16:41;;;;;;;36.37;24.93;;;3.90;1.00;;;;;;5000932;28;20468;-43
2021/04/20 01:19:08;;;;;;;27.13;20.13;;;3.90;99.90;;;;;;4999267;28;20461;-42
2021/04/20 01:21:38;;;;;;;19.70;15.93;;;3.90;1.00;;;;;;5006886;28;20468;-43
2021/04/20 01:24:22;;;;;;;14.47;12.67;;;3.90;99.90;;;;;;5011427;28;20556;-43
2021/04/20 01:26:49;;;;;;;18.50;11.63;;;3.80;99.90;;;;;;4996619;28;20476;-44
2021/04/20 01:29:15;;;;;;;14.53;11.20;;;3.70;1.00;;;;;;5000622;28;20472;-48
2021/04/20 01:31:44;;;;;;;14.17;12.67;;;3.70;1.00;;;;;;5000322;28;20492;-44
2021/04/20 01:34:11;;;;;;;15.57;11.00;;;3.70;1.00;;;;;;4998596;28;20460;-45
2021/04/20 01:36:38;;;;;;;17.77;13.80;;;3.60;1.00;;;;;;5000773;28;20955;-43
2021/04/20 01:39:09;;;;;;;22.50;15.57;;;3.60;99.90;;;;;;5006128;28;20476;-47
2021/04/20 01:41:38;;;;;;;21.57;16.20;;;3.60;1.00;;;;;;5016759;28;20472;-44
2021/04/20 01:44:08;;;;;;;19.17;14.30;;;3.50;1.00;;;;;;5003810;28;20904;-43
2021/04/20 01:46:37;;;;;;;24.33;16.93;;;3.40;99.90;;;;;;5009961;28;20491;-47
2021/04/20 01:49:04;;;;;;;33.47;21.67;;;3.30;68.40;;;;;;5007155;28;20555;-43
2021/04/20 01:51:31;;;;;;;30.40;19.40;;;3.30;99.90;;;;;;5010428;28;20924;-44
2021/04/20 01:53:58;;;;;;;23.13;16.80;;;3.30;99.90;;;;;;5005043;28;20894;-43
2021/04/20 01:56:26;;;;;;;22.00;14.73;;;3.30;99.90;;;;;;5008419;28;20515;-42
2021/04/20 01:58:54;;;;;;;21.93;15.30;;;3.30;1.00;;;;;;5009946;28;20550;-42
2021/04/20 02:01:25;;;;;;;18.40;12.40;;;3.30;99.90;;;;;;5018774;28;20563;-46
2021/04/20 02:03:52;;;;;;;14.23;11.93;;;3.30;99.90;;;;;;5013415;28;20504;-43
2021/04/20 02:06:21;;;;;;;14.10;11.70;;;3.30;84.60;;;;;;4998127;28;20483;-43
2021/04/20 02:08:48;;;;;;;14.87;12.03;;;3.30;3.20;;;;;;5000418;28;20443;-43
2021/04/20 02:11:20;;;;;;;16.27;11.93;;;3.30;26.30;;;;;;5003855;28;20461;-43
2021/04/20 02:13:47;;;;;;;13.40;12.00;;;3.40;99.90;;;;;;5016416;28;20472;-43
2021/04/20 02:16:15;;;;;;;14.33;11.87;;;3.30;99.90;;;;;;5016410;28;20520;-46
2021/04/20 02:18:45;;;;;;;24.03;11.50;;;3.30;99.90;;;;;;4999734;28;20516;-43
2021/04/20 02:21:13;;;;;;;17.03;11.20;;;3.20;1.00;;;;;;5007464;28;20538;-45
2021/04/20 02:23:43;;;;;;;13.87;11.70;;;3.00;73.50;;;;;;5007535;28;20511;-43
2021/04/20 02:26:12;;;;;;;15.60;12.10;;;3.00;99.90;;;;;;5009169;28;20510;-43
2021/04/20 02:28:39;;;;;;;18.93;13.17;;;3.00;99.90;;;;;;5008034;28;20461;-42
2021/04/20 02:31:08;;;;;;;35.30;18.13;;;3.00;99.90;;;;;;5007227;28;20482;-42
2021/04/20 02:33:37;;;;;;;20.87;14.50;;;3.00;1.00;;;;;;5005532;28;20716;-43
2021/04/20 02:36:05;;;;;;;25.53;15.80;;;3.00;1.00;;;;;;5007591;28;20757;-46
2021/04/20 02:38:33;;;;;;;17.57;14.40;;;2.90;1.00;;;;;;5009014;28;20765;-46
2021/04/20 02:41:04;;;;;;;26.33;15.83;;;2.90;1.00;;;;;;5001883;28;20468;-43
2021/04/20 02:43:30;;;;;;;42.23;18.13;;;3.00;99.90;;;;;;5015566;28;20488;-42
2021/04/20 02:45:59;;;;;;;20.90;13.67;;;2.90;99.90;;;;;;5007919;28;20464;-42
2021/04/20 02:48:28;;;;;;;16.33;13.00;;;2.90;99.90;;;;;;5007943;28;20828;-43
2021/04/20 02:50:56;;;;;;;14.90;12.03;;;2.90;99.90;;;;;;5004863;28;20461;-42
2021/04/20 02:53:24;;;;;;;13.57;12.07;;;2.90;99.90;;;;;;5007163;28;20452;-43
2021/04/20 02:55:51;;;;;;;16.67;11.43;;;2.90;99.90;;;;;;5005985;28;20911;-43
2021/04/20 02:58:21;;;;;;;15.97;11.87;;;2.80;99.90;;;;;;5004509;28;20456;-41
2021/04/20 03:00:54;;;;;;;14.17;12.57;;;2.80;99.90;;;;;;5012983;28;20464;-41
2021/04/20 03:03:21;;;;;;;16.20;11.87;;;2.80;99.90;;;;;;5018614;28;20492;-41
2021/04/20 03:05:49;;;;;;;13.43;10.33;;;2.80;99.90;;;;;;4993454;28;20509;-43
2021/04/20 03:08:16;;;;;;;16.87;12.40;;;2.80;99.90;;;;;;5002700;28;20912;-41
2021/04/20 03:10:45;;;;;;;15.10;12.13;;;2.80;99.90;;;;;;5000707;28;20461;-46
2021/04/20 03:13:12;;;;;;;17.70;13.07;;;2.80;99.90;;;;;;4999111;28;20460;-42
2021/04/20 03:15:40;;;;;;;13.50;11.50;;;2.80;99.90;;;;;;5004248;28;20452;-43
2021/04/20 03:18:06;;;;;;;13.83;11.40;;;2.80;99.90;;;;;;5007221;28;20443;-43
2021/04/20 03:20:34;;;;;;;42.67;25.60;;;2.70;99.90;;;;;;5008271;28;20482;-43
2021/04/20 03:23:02;;;;;;;45.87;25.70;;;2.60;99.90;;;;;;5004587;28;20545;-43
2021/04/20 03:25:32;;;;;;;44.30;27.20;;;2.60;99.90;;;;;;5007875;28;20554;-42
2021/04/20 03:27:59;;;;;;;39.90;24.30;;;2.60;99.90;;;;;;5017457;28;20465;-42
2021/04/20 03:30:28;;;;;;;18.37;13.73;;;2.60;99.90;;;;;;5017591;28;20476;-41
2021/04/20 03:33:04;;;;;;;19.47;14.67;;;2.60;99.90;;;;;;5007334;28;20493;-44
2021/04/20 03:35:38;;;;;;;19.33;14.37;;;2.60;99.90;;;;;;5010822;28;20460;-42
2021/04/20 03:38:13;;;;;;;17.43;13.13;;;2.70;99.90;;;;;;5017390;28;20562;-45
2021/04/20 03:40:48;;;;;;;15.30;12.60;;;2.60;99.90;;;;;;5016914;28;20475;-42
2021/04/20 03:43:16;;;;;;;17.00;13.67;;;2.70;99.90;;;;;;4998158;28;20558;-43
2021/04/20 03:45:52;;;;;;;15.03;13.43;;;2.70;99.90;;;;;;5010581;28;20827;-43
2021/04/20 03:48:25;;;;;;;16.03;12.70;;;2.60;99.90;;;;;;5017210;28;20832;-46
2021/04/20 03:50:57;;;;;;;16.20;13.20;;;2.50;99.90;;;;;;5005951;28;20731;-42
2021/04/20 03:53:26;;;;;;;21.60;15.90;;;2.50;99.90;;;;;;5009161;28;20468;-42
2021/04/20 03:55:54;;;;;;;20.80;15.10;;;2.50;99.90;;;;;;5016598;28;20476;-42
2021/04/20 03:58:23;;;;;;;20.70;14.37;;;2.40;77.40;;;;;;5017236;28;20485;-45
2021/04/20 04:00:55;;;;;;;19.30;14.10;;;2.40;36.60;;;;;;5016108;28;20486;-43
2021/04/20 04:03:25;;;;;;;22.43;12.50;;;2.40;99.90;;;;;;5016878;28;20496;-43
2021/04/20 04:05:53;;;;;;;39.80;24.90;;;2.40;99.90;;;;;;4993968;28;20479;-47
2021/04/20 04:08:21;;;;;;;45.40;27.20;;;2.40;99.90;;;;;;4999810;28;20480;-42
2021/04/20 04:10:51;;;;;;;33.00;20.60;;;2.30;99.90;;;;;;5008835;28;20530;-45
2021/04/20 04:13:22;;;;;;;23.70;16.80;;;2.40;99.90;;;;;;5005650;28;20550;-42
2021/04/20 04:15:52;;;;;;;21.80;14.30;;;2.40;99.90;;;;;;5011706;28;20775;-42
2021/04/20 04:18:23;;;;;;;17.60;13.50;;;2.30;99.90;;;;;;5005337;28;20519;-42
2021/04/20 04:20:50;;;;;;;17.90;13.30;;;2.30;99.90;;;;;;5008723;28;20472;-45
2021/04/20 04:23:21;;;;;;;16.30;13.27;;;2.30;99.90;;;;;;5014442;28;20477;-47
2021/04/20 04:25:55;;;;;;;21.67;14.43;;;2.40;99.90;;;;;;5016359;28;20476;-47
2021/04/20 04:28:24;;;;;;;14.73;11.70;;;2.40;99.90;;;;;;5016368;28;20511;-45
2021/04/20 04:30:51;;;;;;;16.90;13.93;;;2.30;99.90;;;;;;5015067;28;21016;-45
2021/04/20 04:33:19;;;;;;;20.50;14.60;;;2.30;99.90;;;;;;5016780;28;20471;-42
2021/04/20 04:35:48;;;;;;;18.60;14.37;;;2.30;99.90;;;;;;5017777;28;20908;-43
2021/04/20 04:38:15;;;;;;;18.47;13.93;;;2.30;99.90;;;;;;5017721;28;20806;-44
2021/04/20 04:40:43;;;;;;;19.47;13.67;;;2.40;99.90;;;;;;5015791;28;20477;-43
2021/04/20 04:43:10;;;;;;;19.37;14.50;;;2.30;99.90;;;;;;5003686;28;20496;-43
2021/04/20 04:45:38;;;;;;;16.80;13.70;;;2.40;99.90;;;;;;5012650;28;20451;-43
2021/04/20 04:48:07;;;;;;;18.60;13.43;;;2.40;99.90;;;;;;5012873;28;20476;-42
2021/04/20 04:50:37;;;;;;;21.33;14.17;;;2.40;99.90;;;;;;5010704;28;20898;-50
2021/04/20 04:53:04;;;;;;;23.03;13.50;;;2.40;99.90;;;;;;5008517;28;20802;-47
2021/04/20 04:55:31;;;;;;;21.33;13.10;;;2.40;99.90;;;;;;5015757;28;20476;-44
2021/04/20 04:57:59;;;;;;;16.20;12.70;;;2.50;99.90;;;;;;5020087;28;20464;-46
2021/04/20 05:00:26;;;;;;;32.00;20.90;;;2.40;99.90;;;;;;5019595;28;20464;-45
2021/04/20 05:02:54;;;;;;;96.03;55.27;;;2.40;99.90;;;;;;5009564;28;20581;-42
2021/04/20 05:05:25;;;;;;;54.67;32.67;;;2.50;99.90;;;;;;4999656;28;20480;-47
2021/04/20 05:07:57;;;;;;;40.27;23.07;;;2.50;99.90;;;;;;5000167;28;20564;-47
2021/04/20 05:10:24;;;;;;;27.77;19.47;;;2.60;99.90;;;;;;5001162;28;20469;-43
2021/04/20 05:12:51;;;;;;;19.90;13.80;;;2.70;99.90;;;;;;5001483;28;20453;-44
2021/04/20 05:15:19;;;;;;;18.73;14.03;;;2.60;99.90;;;;;;5001035;28;20473;-43
2021/04/20 05:17:46;;;;;;;21.20;14.67;;;2.70;99.90;;;;;;5008173;28;20490;-43
2021/04/20 05:20:16;;;;;;;21.50;15.13;;;2.70;99.90;;;;;;5003328;28;20464;-43
2021/04/20 05:22:43;;;;;;;18.13;13.50;;;2.80;99.90;;;;;;5000611;28;20524;-42
2021/04/20 05:25:11;;;;;;;18.70;14.30;;;2.90;99.90;;;;;;5000591;28;20771;-47
2021/04/20 05:27:40;;;;;;;46.50;31.70;;;2.90;99.90;;;;;;5000898;28;20464;-44
2021/04/20 05:30:09;;;;;;;54.77;38.47;;;3.00;99.90;;;;;;4998070;28;20812;-43
2021/04/20 05:32:39;;;;;;;30.23;21.43;;;3.10;99.90;;;;;;5012035;28;20460;-43
2021/04/20 05:35:10;;;;;;;28.17;20.30;;;3.20;99.90;;;;;;5017582;28;20442;-44
2021/04/20 05:37:40;;;;;;;20.10;16.07;;;3.30;99.90;;;;;;5016932;28;20465;-44
2021/04/20 05:40:12;;;;;;;20.30;15.03;;;3.40;99.90;;;;;;4997692;28;20762;-43
2021/04/20 05:42:39;;;;;;;18.83;14.67;;;3.50;99.90;;;;;;4997603;28;20496;-45
2021/04/20 05:45:07;;;;;;;18.17;14.90;;;3.60;99.90;;;;;;4997669;28;20461;-46
2021/04/20 05:47:37;;;;;;;20.20;16.90;;;3.60;17.80;;;;;;4996109;28;20472;-45
2021/04/20 05:50:08;;;;;;;21.17;15.10;;;3.80;1.00;;;;;;4997793;28;20921;-44
2021/04/20 05:52:38;;;;;;;27.57;16.30;;;3.90;99.90;;;;;;4997327;28;20833;-47
2021/04/20 05:55:08;;;;;;;23.30;16.37;;;4.00;90.60;;;;;;4997547;28;20490;-44
2021/04/20 05:57:34;;;;;;;24.13;16.67;;;4.10;99.90;;;;;;4995986;28;20567;-47
2021/04/20 06:00:17;;;;;;;29.20;19.53;;;4.30;99.90;;;;;;4997739;28;20476;-44
2021/04/20 06:02:47;;;;;;;24.60;17.63;;;4.50;99.90;;;;;;4994167;28;20579;-44
2021/04/20 06:05:17;;;;;;;22.00;15.63;;;4.70;1.00;;;;;;5000265;28;20854;-46
2021/04/20 06:07:46;;;;;;;28.67;18.83;;;4.90;1.00;;;;;;5000081;28;20473;-48
2021/04/20 06:10:16;;;;;;;22.50;16.63;;;5.10;1.00;;;;;;5015398;28;20470;-46
2021/04/20 06:12:44;;;;;;;22.80;18.00;;;5.40;99.90;;;;;;5016526;28;20482;-44
2021/04/20 06:15:14;;;;;;;23.53;17.57;;;5.60;62.00;;;;;;5016755;28;20460;-44
2021/04/20 06:17:45;;;;;;;22.93;18.30;;;5.80;1.00;;;;;;5018026;28;20459;-44
2021/04/20 06:20:16;;;;;;;32.30;21.93;;;6.10;99.90;;;;;;5015886;28;20904;-46
2021/04/20 06:22:47;;;;;;;29.33;16.77;;;6.40;99.90;;;;;;5000064;28;20489;-49
2021/04/20 06:25:18;;;;;;;24.03;18.60;;;6.60;1.00;;;;;;4999069;28;20563;-45
2021/04/20 06:27:47;;;;;;;24.77;17.47;;;6.90;1.00;;;;;;4999838;28;20476;-44
2021/04/20 06:30:17;;;;;;;30.70;18.67;;;7.20;1.00;;;;;;4998789;28;20529;-44
2021/04/20 06:32:45;;;;;;;26.20;18.43;;;7.40;99.90;;;;;;4999429;28;20461;-44
2021/04/20 06:35:17;;;;;;;22.00;17.70;;;7.60;99.90;;;;;;4999691;28;20472;-43
2021/04/20 06:37:45;;;;;;;23.33;16.70;;;7.90;61.40;;;;;;4998962;28;20472;-43
2021/04/20 06:40:16;;;;;;;25.63;19.17;;;8.20;30.00;;;;;;4998873;28;20500;-43
2021/04/20 06:42:47;;;;;;;29.97;18.33;;;8.50;6.40;;;;;;4999519;28;20502;-45
2021/04/20 06:45:22;;;;;;;28.50;19.70;;;8.70;1.00;;;;;;4980354;28;20465;-45
2021/04/20 06:47:56;;;;;;;25.10;19.00;;;9.00;1.00;;;;;;4984234;28;20551;-43
2021/04/20 06:50:24;;;;;;;29.47;20.90;;;9.30;1.00;;;;;;5002188;28;20926;-46
2021/04/20 06:52:56;;;;;;;23.00;20.53;;;9.60;1.00;;;;;;5001652;28;20457;-48
2021/04/20 06:55:29;;;;;;;21.97;19.53;;;9.90;1.00;;;;;;4979648;28;20465;-44
2021/04/20 06:58:12;;;;;;;25.60;20.00;;;10.20;1.00;;;;;;4991150;28;20465;-47
2021/04/20 07:00:42;;;;;;;28.90;18.87;;;10.60;1.00;;;;;;4999658;28;20945;-47
2021/04/20 07:03:21;;;;;;;23.37;20.13;;;11.00;1.00;;;;;;4993555;28;20805;-44
2021/04/20 07:05:55;;;;;;;32.13;20.60;;;11.30;1.00;;;;;;4997778;28;20473;-44
2021/04/20 07:08:29;;;;;;;22.07;19.17;;;11.70;1.00;;;;;;5002502;28;20480;-48
2021/04/20 07:10:57;;;;;;;26.80;19.20;;;12.10;1.00;;;;;;4994459;28;20913;-45
2021/04/20 07:13:29;;;;;;;22.40;19.67;;;12.30;1.00;;;;;;4998381;28;20460;-44
2021/04/20 07:15:59;;;;;;;22.47;19.03;;;12.60;1.00;;;;;;4998480;28;20563;-48
2021/04/20 07:19:02;;;;;;;28.20;19.73;;;12.70;1.00;;;;;;4998596;28;20473;-47
2021/04/20 07:21:57;;;;;;;21.23;19.10;;;13.10;1.00;;;;;;4998294;28;20722;-44
2021/04/20 07:24:31;;;;;;;21.50;18.73;;;13.10;1.00;;;;;;4997956;28;20485;-44
2021/04/20 07:27:12;;;;;;;27.63;19.90;;;13.70;1.00;;;;;;4999541;28;20464;-46
2021/04/20 07:29:50;;;;;;;26.87;19.30;;;14.10;99.90;;;;;;4992989;28;20496;-43
2021/04/20 07:32:31;;;;;;;21.90;19.57;;;14.30;99.90;;;;;;4999192;28;20735;-45
2021/04/20 07:35:19;;;;;;;22.43;20.03;;;14.50;99.90;;;;;;4997812;28;20465;-46
2021/04/20 07:37:49;;;;;;;22.60;20.40;;;15.00;1.00;;;;;;4998104;28;20465;-45
2021/04/20 07:40:36;;;;;;;22.93;20.47;;;15.20;99.90;;;;;;4997234;28;20457;-44
2021/04/20 07:43:35;;;;;;;21.67;19.57;;;15.50;99.90;;;;;;5002765;28;20778;-45
2021/04/20 07:46:09;;;;;;;22.00;19.37;;;15.90;99.90;;;;;;5006294;28;20494;-48
2021/04/20 07:48:47;;;;;;;20.83;18.73;;;16.20;99.90;;;;;;5008021;28;20456;-47
2021/04/20 07:51:26;;;;;;;21.47;19.30;;;16.60;99.90;;;;;;5005438;28;20555;-46
2021/04/20 07:54:04;;;;;;;18.07;16.37;;;16.60;99.90;;;;;;5000849;28;20492;-47
2021/04/20 07:56:43;;;;;;;18.53;16.73;;;16.90;99.90;;;;;;4997824;28;20515;-48
2021/04/20 07:59:18;;;;;;;18.80;14.20;;;17.00;99.90;;;;;;4998107;28;20908;-49
2021/04/20 08:01:53;;;;;;;17.63;15.83;;;17.20;99.90;;;;;;4998506;28;20852;-46
2021/04/20 08:04:32;;;;;;;18.30;16.50;;;17.30;99.90;;;;;;4991652;28;20495;-45
2021/04/20 08:07:02;;;;;;;16.93;15.30;;;17.20;99.90;;;;;;4996948;28;20468;-51
2021/04/20 08:09:35;;;;;;;18.33;16.67;;;17.40;99.90;;;;;;4996859;28;20523;-46
2021/04/20 08:12:06;;;;;;;18.77;17.07;;;17.70;99.90;;;;;;4997423;28;20480;-48
2021/04/20 08:14:43;;;;;;;19.77;17.67;;;18.00;99.90;;;;;;4979415;28;20556;-45
2021/04/20 08:17:17;;;;;;;21.47;16.80;;;18.30;99.90;;;;;;4994608;28;20469;-51
2021/04/20 08:19:50;;;;;;;18.43;16.63;;;18.30;99.90;;;;;;4996657;28;20465;-54
2021/04/20 08:22:17;;;;;;;19.73;17.73;;;18.60;99.90;;;;;;4998241;28;20523;-47
2021/04/20 08:24:53;;;;;;;18.40;16.90;;;18.70;99.90;;;;;;4997447;28;20475;-46
2021/04/20 08:27:28;;;;;;;18.80;17.00;;;18.90;99.90;;;;;;4997420;28;20809;-46
2021/04/20 08:30:00;;;;;;;17.47;15.90;;;18.70;99.90;;;;;;4988930;28;25109;-44
2021/04/20 08:32:30;;;;;;;16.63;14.80;;;18.70;99.90;;;;;;4997536;28;20465;-48
2021/04/20 08:35:02;;;;;;;17.40;15.90;;;18.80;99.90;;;;;;4997094;28;20469;-45
2021/04/20 08:37:39;;;;;;;18.43;16.73;;;19.00;99.90;;;;;;4996125;28;20472;-45
2021/04/20 08:40:15;;;;;;;16.93;15.47;;;18.80;99.90;;;;;;4994170;28;20480;-45
2021/04/20 08:42:49;;;;;;;15.97;14.57;;;18.90;99.90;;;;;;4997188;28;20499;-45
2021/04/20 08:45:23;;;;;;;17.17;15.37;;;19.10;99.90;;;;;;4992868;28;20468;-52
2021/04/20 08:48:02;;;;;;;16.43;15.00;;;18.80;99.90;;;;;;4997314;28;20952;-49
2021/04/20 08:50:34;;;;;;;16.77;15.27;;;18.70;99.90;;;;;;4978165;28;20476;-49
2021/04/20 08:56:29;;;;;;;15.00;13.70;;;18.70;99.90;;;;;;5547517;23;20703;-51
2021/04/20 08:59:11;;;;;;;15.30;14.00;;;18.80;99.90;;;;;;4957510;29;20451;-54
2021/04/20 09:01:48;;;;;;;18.27;15.37;;;18.30;99.90;;;;;;4973451;28;20916;-45
2021/04/20 09:04:48;;;;;;;17.17;15.60;;;18.90;99.90;;;;;;4980467;28;20492;-52
2021/04/20 09:07:34;;;;;;;16.50;15.10;;;18.70;99.90;;;;;;4987976;28;20464;-45
2021/04/20 09:10:14;;;;;;;16.20;14.80;;;19.30;99.90;;;;;;4988451;28;20531;-47
2021/04/20 09:12:44;;;;;;;15.73;14.43;;;19.20;99.90;;;;;;4990207;28;20455;-45
2021/04/20 09:15:14;;;;;;;17.10;15.57;;;19.40;99.90;;;;;;4987773;28;20511;-46
2021/04/20 09:17:51;;;;;;;15.53;14.20;;;19.10;99.90;;;;;;4987613;28;20454;-48
2021/04/20 09:20:25;;;;;;;17.60;15.90;;;18.20;99.90;;;;;;4978791;28;20553;-44
2021/04/20 09:22:58;;;;;;;15.87;14.47;;;17.50;99.90;;;;;;4977408;28;20486;-46
2021/04/20 09:25:28;;;;;;;15.40;14.10;;;18.20;99.90;;;;;;4984306;28;20500;-49
2021/04/20 09:28:02;;;;;;;15.40;14.03;;;18.90;99.90;;;;;;4974537;28;20467;-52
2021/04/20 09:30:42;;;;;;;15.27;13.87;;;19.80;99.90;;;;;;4975382;28;20464;-48
2021/04/20 09:33:14;;;;;;;16.57;14.97;;;20.40;99.90;;;;;;4981282;28;20956;-47
2021/04/20 09:35:42;;;;;;;15.67;14.37;;;20.40;99.90;;;;;;4981078;28;20501;-51
2021/04/20 09:38:13;;;;;;;16.50;15.10;;;19.20;99.90;;;;;;4985242;28;20468;-47
2021/04/20 09:40:42;;;;;;;16.30;14.83;;;19.70;99.90;;;;;;5000937;28;20544;-47
2021/04/20 09:43:18;;;;;;;16.63;15.23;;;20.80;99.90;;;;;;5000093;28;20496;-50
2021/04/20 09:45:52;;;;;;;15.87;14.53;;;21.10;99.90;;;;;;5000987;28;20813;-45
2021/04/20 09:48:28;;;;;;;15.40;14.20;;;21.10;99.90;;;;;;5001135;28;20508;-49
2021/04/20 09:51:06;;;;;;;18.17;16.57;;;20.80;99.90;;;;;;5001054;28;20492;-49
2021/04/20 09:53:57;;;;;;;17.23;15.57;;;20.20;99.90;;;;;;5000510;28;20468;-47
2021/04/20 09:56:33;;;;;;;17.20;15.70;;;19.60;99.90;;;;;;4980394;28;20881;-47
2021/04/20 09:59:03;;;;;;;17.40;15.80;;;18.90;99.90;;;;;;4976210;28;20466;-45
2021/04/20 10:01:43;;;;;;;17.57;15.97;;;19.50;99.90;;;;;;4961312;29;20470;-46
2021/04/20 10:04:13;;;;;;;17.73;16.20;;;19.50;99.90;;;;;;4960660;28;20498;-46
2021/04/20 10:07:12;;;;;;;16.20;14.67;;;19.40;99.90;;;;;;4957922;28;20466;-47
2021/04/20 10:09:48;;;;;;;17.13;15.57;;;19.70;99.90;;;;;;4935007;28;20465;-47
2021/04/20 10:12:31;;;;;;;15.90;14.40;;;19.60;99.90;;;;;;4980484;28;20878;-45
2021/04/20 10:15:11;;;;;;;18.43;16.83;;;19.40;99.90;;;;;;4974377;28;20466;-46
2021/04/20 10:17:45;;;;;;;17.27;15.87;;;19.10;99.90;;;;;;4978148;28;20461;-51
2021/04/20 10:20:22;;;;;;;18.00;16.30;;;18.70;99.90;;;;;;4980494;28;20504;-47
2021/04/20 10:22:58;;;;;;;18.40;16.70;;;18.70;99.90;;;;;;4955719;29;20783;-53
2021/04/20 10:25:35;;;;;;;16.83;15.30;;;18.50;99.90;;;;;;4960228;29;20743;-53
2021/04/20 10:28:14;;;;;;;17.57;15.70;;;18.80;99.90;;;;;;4943751;29;20572;-46
2021/04/20 10:30:44;;;;;;;16.70;15.30;;;18.80;99.90;;;;;;4964161;28;20465;-44
2021/04/20 10:33:12;;;;;;;16.47;15.03;;;19.10;99.90;;;;;;4962667;28;20471;-47
2021/04/20 10:35:40;;;;;;;15.60;14.17;;;19.70;99.90;;;;;;4963402;28;20463;-54
2021/04/20 10:38:15;;;;;;;16.40;15.00;;;19.80;99.90;;;;;;4963050;28;20872;-45
2021/04/20 10:40:49;;;;;;;17.00;15.50;;;20.50;99.90;;;;;;4964702;28;20472;-46
2021/04/20 10:43:19;;;;;;;15.60;14.23;;;21.20;99.90;;;;;;4980053;28;20957;-45
2021/04/20 10:45:49;;;;;;;16.40;15.00;;;21.10;99.90;;;;;;4979584;28;20470;-49
2021/04/20 10:48:24;;;;;;;15.10;13.90;;;20.90;99.90;;;;;;4979840;28;20949;-48
2021/04/20 10:50:52;;;;;;;16.80;15.07;;;19.80;99.90;;;;;;4968106;28;20907;-45
2021/04/20 10:53:22;;;;;;;16.90;15.50;;;19.90;99.90;;;;;;4960988;29;20649;-45
2021/04/20 10:55:51;;;;;;;16.73;15.27;;;19.50;99.90;;;;;;4972024;28;20466;-46
2021/04/20 10:58:23;;;;;;;16.20;14.80;;;19.40;99.90;;;;;;4994411;28;20489;-46
2021/04/20 11:00:52;;;;;;;16.80;15.40;;;20.10;99.90;;;;;;4999501;28;20469;-51
2021/04/20 11:03:23;;;;;;;16.40;15.00;;;20.60;99.90;;;;;;4988416;28;20584;-49
2021/04/20 11:05:50;;;;;;;16.87;15.40;;;21.00;99.90;;;;;;4979319;28;20556;-46
2021/04/20 11:08:26;;;;;;;15.90;14.60;;;21.40;99.90;;;;;;4978997;28;20466;-45
2021/04/20 11:10:53;;;;;;;16.03;14.53;;;21.50;99.90;;;;;;4961114;28;20472;-54
2021/04/20 11:13:34;;;;;;;15.47;14.27;;;22.10;99.90;;;;;;4986713;28;20461;-51
2021/04/20 11:16:03;;;;;;;15.97;14.57;;;21.80;99.90;;;;;;4997291;28;20808;-45
2021/04/20 11:18:34;;;;;;;16.83;15.47;;;21.40;99.90;;;;;;4997025;28;20476;-52
2021/04/20 11:21:07;;;;;;;16.17;14.87;;;21.60;99.90;;;;;;4975378;28;20466;-46
2021/04/20 11:23:46;;;;;;;15.53;14.27;;;20.80;99.90;;;;;;4996171;28;20491;-49
2021/04/20 11:26:18;;;;;;;16.87;15.37;;;20.00;99.90;;;;;;4976319;28;20465;-48
2021/04/20 11:28:53;;;;;;;15.43;14.23;;;20.50;99.90;;;;;;4959042;28;20624;-49
2021/04/20 11:31:29;;;;;;;15.53;14.10;;;20.80;99.90;;;;;;4978485;28;20468;-46
2021/04/20 11:34:10;;;;;;;16.53;15.13;;;21.40;99.90;;;;;;4960152;28;20462;-50
2021/04/20 11:36:46;;;;;;;14.63;13.30;;;21.70;99.90;;;;;;4987279;28;20488;-46
2021/04/20 11:39:19;;;;;;;17.27;15.97;;;22.30;99.90;;;;;;4985323;28;20912;-48
2021/04/20 11:41:54;;;;;;;17.67;16.03;;;22.70;99.90;;;;;;4972331;28;20493;-49
2021/04/20 11:44:25;;;;;;;16.20;14.80;;;22.30;99.90;;;;;;4978571;28;20929;-45
2021/04/20 11:46:53;;;;;;;15.50;14.20;;;21.50;99.90;;;;;;4995463;28;20773;-46
2021/04/20 11:49:23;;;;;;;15.40;14.10;;;20.80;99.90;;;;;;4993255;28;20469;-46
2021/04/20 11:51:51;;;;;;;17.57;16.07;;;20.00;99.90;;;;;;4979233;28;20903;-46
2021/04/20 11:54:25;;;;;;;16.70;15.20;;;19.80;99.90;;;;;;4982154;28;20465;-46
2021/04/20 11:56:57;;;;;;;16.97;15.37;;;19.60;99.90;;;;;;4997537;28;20488;-49
2021/04/20 11:59:25;;;;;;;17.60;16.00;;;19.40;99.90;;;;;;4990958;28;20486;-48
2021/04/20 12:01:53;;;;;;;16.00;14.50;;;19.30;99.90;;;;;;4961300;28;20898;-45
2021/04/20 12:04:28;;;;;;;16.67;15.20;;;19.30;99.90;;;;;;4975065;28;20509;-45
2021/04/20 12:06:57;;;;;;;16.73;15.23;;;19.30;99.90;;;;;;4993924;28;20461;-48
2021/04/20 12:09:29;;;;;;;15.90;14.60;;;19.30;99.90;;;;;;4984273;28;20470;-50
2021/04/20 12:11:56;;;;;;;15.73;14.30;;;20.20;99.90;;;;;;4986254;28;20460;-54
2021/04/20 12:14:27;;;;;;;15.40;14.00;;;21.10;99.90;;;;;;4991211;28;20518;-45
2021/04/20 12:17:01;;;;;;;14.10;12.87;;;22.30;99.90;;;;;;4981500;28;20472;-53
2021/04/20 12:19:32;;;;;;;15.07;13.87;;;22.40;99.90;;;;;;4997017;28;20475;-48
2021/04/20 12:22:01;;;;;;;15.90;14.50;;;22.20;99.90;;;;;;4988874;28;20552;-46
2021/04/20 12:24:30;;;;;;;15.67;14.17;;;22.30;99.90;;;;;;4982943;28;20528;-46
2021/04/20 12:27:01;;;;;;;16.00;14.50;;;22.50;99.90;;;;;;4986257;28;20556;-48
2021/04/20 12:29:38;;;;;;;14.63;13.43;;;22.80;99.90;;;;;;4978046;28;20476;-54
2021/04/20 12:32:11;;;;;;;14.07;13.00;;;24.00;99.90;;;;;;4983701;28;20560;-49
2021/04/20 12:34:38;;;;;;;14.90;13.40;;;24.50;99.90;;;;;;4978888;28;20798;-46
2021/04/20 12:37:07;;;;;;;13.40;12.40;;;24.50;99.90;;;;;;4997633;28;20460;-47
2021/04/20 12:39:38;;;;;;;14.37;13.20;;;24.10;99.90;;;;;;4981660;28;20906;-45
2021/04/20 12:42:11;;;;;;;14.63;13.30;;;23.70;99.90;;;;;;4979294;28;20874;-45
2021/04/20 12:44:40;;;;;;;13.73;12.63;;;23.50;99.90;;;;;;4980137;28;20489;-46
2021/04/20 12:47:12;;;;;;;13.07;12.07;;;23.40;99.90;;;;;;4974485;28;20502;-55
2021/04/20 12:49:50;;;;;;;13.87;12.77;;;22.90;99.90;;;;;;4979241;28;20501;-51
2021/04/20 12:52:25;;;;;;;15.27;13.77;;;22.10;99.90;;;;;;4996632;28;20469;-51
2021/04/20 12:54:59;;;;;;;13.43;12.33;;;22.00;99.90;;;;;;4992929;28;20460;-50
2021/04/20 12:57:41;;;;;;;14.13;12.83;;;21.50;99.90;;;;;;4996704;28;20936;-48